Time,TemperatureF,DewpointF,PressureIn,WindDirection,WindDirectionDegrees,WindSpeedMPH,WindSpeedGustMPH,Humidity,HourlyPrecipIn,Conditions,Clouds,dailyrainin,SoftwareType,DateUTC
2013-06-08 00:01:00,78.6,56.2,29.83,South,169,2.2,2.2,46,0.00,,---,0.00,VWS V14.01,2013-06-08 04:01:00,
2013-06-08 00:06:00,78.4,56.1,29.83,South,179,5.4,5.4,46,0.00,,---,0.00,VWS V14.01,2013-06-08 04:06:00,
2013-06-08 00:11:00,78.4,56.7,29.83,South,174,4.0,4.0,47,0.00,,---,0.00,VWS V14.01,2013-06-08 04:11:00,
2013-06-08 00:16:00,78.3,56.5,29.83,South,173,0.0,0.0,47,0.00,,---,0.00,VWS V14.01,2013-06-08 04:16:00,
2013-06-08 00:22:00,78.1,57.0,29.83,SSE,166,4.0,5.8,48,0.00,,---,0.00,VWS V14.01,2013-06-08 04:22:00,
2013-06-08 00:27:00,77.9,56.8,29.83,South,175,2.2,3.6,48,0.00,,---,0.00,VWS V14.01,2013-06-08 04:27:00,
2013-06-08 00:32:00,77.9,57.4,29.83,SSW,204,4.9,4.9,49,0.00,,---,0.00,VWS V14.01,2013-06-08 04:32:00,
2013-06-08 00:37:00,77.7,57.2,29.83,SSE,168,3.1,3.1,49,0.00,,---,0.00,VWS V14.01,2013-06-08 04:37:00,
2013-06-08 00:42:00,77.5,57.1,29.83,SSE,167,0.0,6.3,49,0.00,,---,0.00,VWS V14.01,2013-06-08 04:42:00,
2013-06-08 00:47:00,77.5,57.7,29.83,SSW,202,0.0,3.1,50,0.00,,---,0.00,VWS V14.01,2013-06-08 04:47:00,
2013-06-08 00:52:00,77.4,57.5,29.83,South,179,3.1,3.1,50,0.00,,---,0.00,VWS V14.01,2013-06-08 04:52:00,
2013-06-08 00:57:00,77.4,58.1,29.83,SSW,212,2.2,3.1,51,0.00,,---,0.00,VWS V14.01,2013-06-08 04:57:00,
2013-06-08 01:02:00,77.2,57.9,29.83,South,185,0.0,2.7,51,0.00,,---,0.00,VWS V14.01,2013-06-08 05:02:00,
2013-06-08 01:07:00,77.0,58.3,29.83,SSE,165,2.7,4.0,52,0.00,,---,0.00,VWS V14.01,2013-06-08 05:07:00,
2013-06-08 01:12:00,76.8,58.7,29.83,South,186,3.6,3.6,54,0.00,,---,0.00,VWS V14.01,2013-06-08 05:12:00,
2013-06-08 01:17:00,76.8,59.2,29.83,South,177,0.0,3.6,55,0.00,,---,0.00,VWS V14.01,2013-06-08 05:17:00,
2013-06-08 01:22:00,76.6,59.1,29.83,SSE,168,0.0,3.1,55,0.00,,---,0.00,VWS V14.01,2013-06-08 05:22:00,
2013-06-08 01:27:00,76.5,59.4,29.83,South,171,3.6,3.6,56,0.00,,---,0.00,VWS V14.01,2013-06-08 05:27:00,
2013-06-08 01:32:00,76.5,60.0,29.83,South,170,2.7,4.0,57,0.00,,---,0.00,VWS V14.01,2013-06-08 05:32:00,
2013-06-08 01:37:00,76.5,60.0,29.83,South,179,2.2,3.6,57,0.00,,---,0.00,VWS V14.01,2013-06-08 05:37:00,
2013-06-08 01:42:00,76.3,60.3,29.83,South,172,4.9,4.9,58,0.00,,---,0.00,VWS V14.01,2013-06-08 05:42:00,
2013-06-08 01:47:00,76.3,60.8,29.83,South,176,2.2,4.0,59,0.00,,---,0.00,VWS V14.01,2013-06-08 05:47:00,
2013-06-08 01:52:00,76.3,61.3,29.83,South,173,2.7,2.7,60,0.00,,---,0.00,VWS V14.01,2013-06-08 05:52:00,
2013-06-08 01:57:00,76.3,61.3,29.83,South,183,3.1,4.9,60,0.00,,---,0.00,VWS V14.01,2013-06-08 05:57:00,
2013-06-08 02:02:00,76.3,61.8,29.83,South,169,0.0,0.0,61,0.00,,---,0.00,VWS V14.01,2013-06-08 06:02:00,
2013-06-08 02:07:00,76.3,62.3,29.83,South,182,5.4,6.3,62,0.00,,---,0.00,VWS V14.01,2013-06-08 06:07:00,
2013-06-08 02:12:00,76.3,62.8,29.83,South,170,5.4,5.4,63,0.00,,---,0.00,VWS V14.01,2013-06-08 06:12:00,
2013-06-08 02:17:00,76.3,62.8,29.83,SSE,162,2.7,2.7,63,0.00,,---,0.00,VWS V14.01,2013-06-08 06:17:00,
2013-06-08 02:22:00,76.3,63.7,29.83,South,170,0.0,0.0,65,0.00,,---,0.00,VWS V14.01,2013-06-08 06:22:00,
2013-06-08 02:27:00,76.3,64.2,29.83,South,172,3.1,3.1,66,0.00,,---,0.00,VWS V14.01,2013-06-08 06:27:00,
2013-06-08 02:32:00,76.1,64.4,29.83,South,175,3.6,3.6,67,0.00,,---,0.00,VWS V14.01,2013-06-08 06:32:00,
2013-06-08 02:37:00,76.1,64.4,29.83,SSW,197,3.1,4.0,67,0.00,,---,0.00,VWS V14.01,2013-06-08 06:37:00,
2013-06-08 02:42:00,76.1,64.9,29.83,SSE,158,4.0,4.0,68,0.00,,---,0.00,VWS V14.01,2013-06-08 06:42:00,
2013-06-08 02:47:00,76.1,65.3,29.83,South,186,3.1,3.1,69,0.00,,---,0.00,VWS V14.01,2013-06-08 06:47:00,
2013-06-08 02:52:00,76.1,65.3,29.83,South,179,2.2,2.2,69,0.00,,---,0.00,VWS V14.01,2013-06-08 06:52:00,
2013-06-08 02:57:00,75.9,65.6,29.83,South,180,0.0,0.0,70,0.00,,---,0.00,VWS V14.01,2013-06-08 06:57:00,
2013-06-08 03:02:00,75.9,65.6,29.83,South,180,0.0,0.0,70,0.00,,---,0.00,VWS V14.01,2013-06-08 07:02:00,
2013-06-08 03:07:00,75.7,65.8,29.83,SSE,165,5.8,5.8,71,0.00,,---,0.00,VWS V14.01,2013-06-08 07:07:00,
2013-06-08 03:12:00,75.7,65.8,29.83,South,173,3.1,3.1,71,0.00,,---,0.00,VWS V14.01,2013-06-08 07:12:00,
2013-06-08 03:17:00,75.6,66.1,29.83,South,176,2.2,2.2,72,0.00,,---,0.00,VWS V14.01,2013-06-08 07:17:00,
2013-06-08 03:22:00,75.6,66.5,29.83,SSW,198,0.0,0.0,74,0.00,,---,0.00,VWS V14.01,2013-06-08 07:22:00,
2013-06-08 03:27:00,75.4,66.3,29.83,South,177,2.7,2.7,74,0.00,,---,0.00,VWS V14.01,2013-06-08 07:27:00,
2013-06-08 03:32:00,75.4,66.7,29.83,South,175,0.0,0.0,75,0.00,,---,0.00,VWS V14.01,2013-06-08 07:32:00,
2013-06-08 03:37:00,75.4,66.7,29.83,South,175,0.0,0.0,75,0.00,,---,0.00,VWS V14.01,2013-06-08 07:37:00,
2013-06-08 03:42:00,75.2,67.0,29.83,SSW,199,0.0,2.2,76,0.00,,---,0.00,VWS V14.01,2013-06-08 07:42:00,
2013-06-08 03:47:00,75.2,67.4,29.83,SSE,164,0.0,0.0,77,0.00,,---,0.00,VWS V14.01,2013-06-08 07:47:00,
2013-06-08 03:52:00,75.2,67.8,29.83,South,185,0.0,2.2,78,0.00,,---,0.00,VWS V14.01,2013-06-08 07:52:00,
2013-06-08 03:57:00,75.2,68.2,29.83,South,184,0.0,0.0,79,0.00,,---,0.00,VWS V14.01,2013-06-08 07:57:00,
2013-06-08 04:02:00,75.2,68.5,29.83,South,187,0.0,0.0,80,0.00,,---,0.00,VWS V14.01,2013-06-08 08:02:00,
2013-06-08 04:07:00,75.2,68.9,29.83,South,185,0.0,0.0,81,0.00,,---,0.00,VWS V14.01,2013-06-08 08:07:00,
2013-06-08 04:12:00,75.2,68.9,29.83,South,185,0.0,0.0,81,0.00,,---,0.00,VWS V14.01,2013-06-08 08:12:00,
2013-06-08 04:17:00,75.2,69.3,29.83,South,177,3.1,3.6,82,0.00,,---,0.00,VWS V14.01,2013-06-08 08:17:00,
2013-06-08 04:22:00,75.2,69.3,29.83,South,177,3.6,3.6,82,0.00,,---,0.00,VWS V14.01,2013-06-08 08:22:00,
2013-06-08 04:27:00,75.0,69.5,29.83,South,180,2.7,2.7,83,0.00,,---,0.00,VWS V14.01,2013-06-08 08:27:00,
2013-06-08 04:32:00,75.0,69.5,29.83,SSW,192,0.0,0.0,83,0.00,,---,0.00,VWS V14.01,2013-06-08 08:32:00,
2013-06-08 04:37:00,75.0,69.5,29.83,South,182,3.1,3.1,83,0.00,,---,0.00,VWS V14.01,2013-06-08 08:37:00,
2013-06-08 04:42:00,75.0,69.5,29.85,South,179,0.0,0.0,83,0.00,,---,0.00,VWS V14.01,2013-06-08 08:42:00,
2013-06-08 04:47:00,75.0,69.5,29.85,South,174,3.1,3.1,83,0.00,,---,0.00,VWS V14.01,2013-06-08 08:47:00,
2013-06-08 04:52:00,75.0,69.5,29.85,South,178,2.7,4.0,83,0.00,,---,0.00,VWS V14.01,2013-06-08 08:52:00,
2013-06-08 04:57:00,75.0,69.5,29.85,South,170,0.0,0.0,83,0.00,,---,0.00,VWS V14.01,2013-06-08 08:57:00,
2013-06-08 05:02:00,75.0,69.9,29.85,SSE,164,0.0,0.0,84,0.00,,---,0.00,VWS V14.01,2013-06-08 09:02:00,
2013-06-08 05:07:00,75.0,69.9,29.85,South,180,0.0,0.0,84,0.00,,---,0.00,VWS V14.01,2013-06-08 09:07:00,
2013-06-08 05:12:00,75.0,69.9,29.85,SSE,167,2.7,2.7,84,0.00,,---,0.00,VWS V14.01,2013-06-08 09:12:00,
2013-06-08 05:17:00,75.0,69.9,29.85,South,181,3.1,3.1,84,0.00,,---,0.00,VWS V14.01,2013-06-08 09:17:00,
2013-06-08 05:22:00,75.0,69.9,29.85,SSE,165,0.0,0.0,84,0.00,,---,0.00,VWS V14.01,2013-06-08 09:22:00,
2013-06-08 05:27:00,75.0,69.9,29.85,South,173,0.0,0.0,84,0.00,,---,0.00,VWS V14.01,2013-06-08 09:27:00,
2013-06-08 05:32:00,75.2,70.0,29.85,SSW,192,2.7,3.1,84,0.00,,---,0.00,VWS V14.01,2013-06-08 09:32:00,
2013-06-08 05:37:00,75.2,70.0,29.85,SSW,208,2.7,3.1,84,0.00,,---,0.00,VWS V14.01,2013-06-08 09:37:00,
2013-06-08 05:42:00,75.2,70.4,29.85,South,172,0.0,0.0,85,0.00,,---,0.00,VWS V14.01,2013-06-08 09:42:00,
2013-06-08 05:47:00,75.2,70.4,29.85,South,190,0.0,2.2,85,0.00,,---,0.00,VWS V14.01,2013-06-08 09:47:00,
2013-06-08 05:52:00,75.2,70.4,29.85,South,174,3.6,3.6,85,0.00,,---,0.00,VWS V14.01,2013-06-08 09:52:00,
2013-06-08 05:57:00,75.2,70.4,29.85,WSW,253,0.0,0.0,85,0.00,,---,0.00,VWS V14.01,2013-06-08 09:57:00,
2013-06-08 06:02:00,75.0,70.6,29.85,South,179,0.0,0.0,86,0.00,,---,0.00,VWS V14.01,2013-06-08 10:02:00,
2013-06-08 06:07:00,75.0,70.6,29.85,SSW,193,0.0,0.0,86,0.00,,---,0.00,VWS V14.01,2013-06-08 10:07:00,
2013-06-08 06:12:00,75.0,70.9,29.85,South,191,0.0,0.0,87,0.00,,---,0.00,VWS V14.01,2013-06-08 10:12:00,
2013-06-08 06:17:00,74.8,70.8,29.85,SSE,163,0.0,0.0,87,0.00,,---,0.00,VWS V14.01,2013-06-08 10:17:00,
2013-06-08 06:22:00,74.8,70.8,29.85,SSE,163,0.0,0.0,87,0.00,,---,0.00,VWS V14.01,2013-06-08 10:22:00,
2013-06-08 06:27:00,74.8,70.8,29.85,SSE,163,0.0,0.0,87,0.00,,---,0.00,VWS V14.01,2013-06-08 10:27:00,
2013-06-08 06:32:00,74.7,70.6,29.85,SSE,163,0.0,0.0,87,0.00,,---,0.00,VWS V14.01,2013-06-08 10:32:00,
2013-06-08 06:37:00,74.5,70.4,29.85,SSE,164,0.0,0.0,87,0.00,,---,0.00,VWS V14.01,2013-06-08 10:37:00,
2013-06-08 06:42:00,74.3,70.2,29.88,SSE,164,0.0,0.0,87,0.00,,---,0.00,VWS V14.01,2013-06-08 10:42:00,
2013-06-08 06:47:00,74.3,70.6,29.88,SSE,164,0.0,0.0,88,0.00,,---,0.00,VWS V14.01,2013-06-08 10:47:00,
2013-06-08 06:52:00,74.3,70.6,29.88,SSW,202,0.0,0.0,88,0.00,,---,0.00,VWS V14.01,2013-06-08 10:52:00,
2013-06-08 06:57:00,74.3,70.9,29.88,SSW,196,0.0,0.0,89,0.00,,---,0.00,VWS V14.01,2013-06-08 10:57:00,
2013-06-08 07:02:00,74.3,70.9,29.88,SSW,196,0.0,0.0,89,0.00,,---,0.00,VWS V14.01,2013-06-08 11:02:00,
2013-06-08 07:07:00,74.3,70.9,29.88,SW,236,0.0,0.0,89,0.00,,---,0.00,VWS V14.01,2013-06-08 11:07:00,
2013-06-08 07:12:00,74.3,70.9,29.88,SW,236,0.0,0.0,89,0.00,,---,0.00,VWS V14.01,2013-06-08 11:12:00,
2013-06-08 07:17:00,74.3,70.9,29.88,South,186,0.0,0.0,89,0.00,,---,0.00,VWS V14.01,2013-06-08 11:17:00,
2013-06-08 07:22:00,74.3,70.9,29.88,WSW,251,0.0,0.0,89,0.00,,---,0.00,VWS V14.01,2013-06-08 11:22:00,
2013-06-08 07:27:00,74.5,71.1,29.88,South,190,0.0,0.0,89,0.00,,---,0.00,VWS V14.01,2013-06-08 11:27:00,
2013-06-08 07:32:00,74.5,71.1,29.88,SSE,167,0.0,0.0,89,0.00,,---,0.00,VWS V14.01,2013-06-08 11:32:00,
2013-06-08 07:37:00,74.7,71.3,29.88,South,170,0.0,0.0,89,0.00,,---,0.00,VWS V14.01,2013-06-08 11:37:00,
2013-06-08 07:42:00,74.8,71.8,29.88,SE,142,0.0,0.0,90,0.00,,---,0.00,VWS V14.01,2013-06-08 11:42:00,
2013-06-08 07:47:00,74.8,71.5,29.88,SSE,168,3.6,3.6,89,0.00,,---,0.00,VWS V14.01,2013-06-08 11:47:00,
2013-06-08 07:52:00,74.8,71.5,29.88,South,169,2.7,2.7,89,0.00,,---,0.00,VWS V14.01,2013-06-08 11:52:00,
2013-06-08 07:57:00,75.0,71.6,29.88,West,260,0.0,0.0,89,0.00,,---,0.00,VWS V14.01,2013-06-08 11:57:00,
2013-06-08 08:02:00,75.2,71.5,29.88,SSW,192,0.0,0.0,88,0.00,,---,0.00,VWS V14.01,2013-06-08 12:02:00,
2013-06-08 08:07:00,75.4,71.3,29.88,SSW,208,0.0,0.0,87,0.00,,---,0.00,VWS V14.01,2013-06-08 12:07:00,
2013-06-08 08:12:00,75.6,70.8,29.88,South,186,2.2,4.0,85,0.00,,---,0.00,VWS V14.01,2013-06-08 12:12:00,
2013-06-08 08:17:00,75.9,70.7,29.88,West,263,3.1,3.1,84,0.00,,---,0.00,VWS V14.01,2013-06-08 12:17:00,
2013-06-08 08:22:00,76.6,70.7,29.88,SSE,160,2.2,5.4,82,0.00,,---,0.00,VWS V14.01,2013-06-08 12:22:00,
2013-06-08 08:27:00,76.6,67.1,29.91,SW,232,2.2,2.2,72,0.00,,---,0.00,VWS V14.01,2013-06-08 12:27:00,
2013-06-08 08:32:00,76.6,67.1,29.91,WNW,290,0.0,2.2,72,0.00,,---,0.00,VWS V14.01,2013-06-08 12:32:00,
2013-06-08 08:37:00,76.8,67.7,29.91,SSE,162,2.2,2.2,74,0.00,,---,0.00,VWS V14.01,2013-06-08 12:37:00,
2013-06-08 08:42:00,77.2,67.2,29.91,South,185,3.6,3.6,71,0.00,,---,0.00,VWS V14.01,2013-06-08 12:42:00,
2013-06-08 08:47:00,77.5,66.7,29.91,SSE,167,0.0,0.0,69,0.00,,---,0.00,VWS V14.01,2013-06-08 12:47:00,
2013-06-08 08:52:00,77.7,65.5,29.91,South,171,0.0,2.2,66,0.00,,---,0.00,VWS V14.01,2013-06-08 12:52:00,
2013-06-08 08:57:00,77.9,64.3,29.91,SW,220,0.0,3.1,63,0.00,,---,0.00,VWS V14.01,2013-06-08 12:57:00,
2013-06-08 09:02:00,78.1,64.0,29.91,SSE,163,2.7,3.1,62,0.00,,---,0.00,VWS V14.01,2013-06-08 13:02:00,
2013-06-08 09:07:00,78.1,63.5,29.91,South,173,0.0,2.7,61,0.00,,---,0.00,VWS V14.01,2013-06-08 13:07:00,
2013-06-08 09:12:00,78.1,63.5,29.91,South,175,2.2,2.7,61,0.00,,---,0.00,VWS V14.01,2013-06-08 13:12:00,
2013-06-08 09:17:00,78.3,63.7,29.91,South,170,2.7,4.0,61,0.00,,---,0.00,VWS V14.01,2013-06-08 13:17:00,
2013-06-08 09:22:00,78.6,64.5,29.91,South,175,5.4,5.4,62,0.00,,---,0.00,VWS V14.01,2013-06-08 13:22:00,
2013-06-08 09:27:00,78.4,63.3,29.91,SSW,194,5.8,5.8,60,0.00,,---,0.00,VWS V14.01,2013-06-08 13:27:00,
2013-06-08 09:32:00,78.6,63.0,29.91,South,169,3.1,3.1,59,0.00,,---,0.00,VWS V14.01,2013-06-08 13:32:00,
2013-06-08 09:37:00,79.0,62.8,29.91,South,177,0.0,0.0,58,0.00,,---,0.00,VWS V14.01,2013-06-08 13:37:00,
2013-06-08 09:42:00,79.5,62.8,29.91,SSE,162,0.0,0.0,57,0.00,,---,0.00,VWS V14.01,2013-06-08 13:42:00,
2013-06-08 09:47:00,79.7,60.2,29.91,South,178,2.7,2.7,51,0.00,,---,0.00,VWS V14.01,2013-06-08 13:47:00,
2013-06-08 09:52:00,80.2,61.3,29.91,South,184,3.1,3.1,52,0.00,,---,0.00,VWS V14.01,2013-06-08 13:52:00,
2013-06-08 09:57:00,80.6,60.5,29.91,South,173,2.7,3.6,50,0.00,,---,0.00,VWS V14.01,2013-06-08 13:57:00,
2013-06-08 10:02:00,81.1,60.4,29.91,West,259,0.0,0.0,49,0.00,,---,0.00,VWS V14.01,2013-06-08 14:02:00,
2013-06-08 10:07:00,81.7,59.7,29.91,South,190,0.0,0.0,47,0.00,,---,0.00,VWS V14.01,2013-06-08 14:07:00,
2013-06-08 10:12:00,82.4,57.7,29.91,South,191,0.0,0.0,43,0.00,,---,0.00,VWS V14.01,2013-06-08 14:12:00,
2013-06-08 10:17:00,82.8,57.3,29.91,NW,315,0.0,0.0,42,0.00,,---,0.00,VWS V14.01,2013-06-08 14:17:00,
2013-06-08 10:22:00,83.1,56.2,29.91,NW,311,0.0,3.6,40,0.00,,---,0.00,VWS V14.01,2013-06-08 14:22:00,
2013-06-08 10:27:00,83.3,56.4,29.91,SSE,163,2.7,4.0,40,0.00,,---,0.00,VWS V14.01,2013-06-08 14:27:00,
2013-06-08 10:32:00,83.8,54.6,29.91,South,186,0.0,0.0,37,0.00,,---,0.00,VWS V14.01,2013-06-08 14:32:00,
2013-06-08 10:37:00,84.4,53.5,29.91,South,169,4.0,4.0,35,0.00,,---,0.00,VWS V14.01,2013-06-08 14:37:00,
2013-06-08 10:42:00,84.6,52.8,29.91,SSE,151,3.6,3.6,34,0.00,,---,0.00,VWS V14.01,2013-06-08 14:42:00,
2013-06-08 10:47:00,84.6,52.0,29.91,WNW,297,0.0,0.0,33,0.00,,---,0.00,VWS V14.01,2013-06-08 14:47:00,
2013-06-08 10:52:00,84.6,51.1,29.91,South,182,4.0,4.0,31,0.00,,---,0.00,VWS V14.01,2013-06-08 14:52:00,
2013-06-08 10:57:00,84.9,52.3,29.94,SSE,168,2.2,2.2,33,0.00,,---,0.00,VWS V14.01,2013-06-08 14:57:00,
2013-06-08 11:02:00,85.1,52.4,29.94,West,266,0.0,2.7,33,0.00,,---,0.00,VWS V14.01,2013-06-08 15:02:00,
2013-06-08 11:07:00,84.9,52.3,29.94,WNW,303,2.7,2.7,33,0.00,,---,0.00,VWS V14.01,2013-06-08 15:07:00,
2013-06-08 11:12:00,85.3,52.6,29.94,SW,236,0.0,2.2,33,0.00,,---,0.00,VWS V14.01,2013-06-08 15:12:00,
2013-06-08 11:17:00,85.8,52.2,29.94,WNW,284,2.7,3.1,31,0.00,,---,0.00,VWS V14.01,2013-06-08 15:17:00,
2013-06-08 11:22:00,86.0,51.4,29.94,South,186,2.7,2.7,30,0.00,,---,0.00,VWS V14.01,2013-06-08 15:22:00,
2013-06-08 11:27:00,86.2,51.5,29.94,SSW,193,2.7,2.7,30,0.00,,---,0.00,VWS V14.01,2013-06-08 15:27:00,
2013-06-08 11:32:00,86.5,50.9,29.94,SSW,199,4.0,5.8,29,0.00,,---,0.00,VWS V14.01,2013-06-08 15:32:00,
2013-06-08 11:37:00,87.1,51.4,29.94,SSW,200,0.0,2.7,29,0.00,,---,0.00,VWS V14.01,2013-06-08 15:37:00,
2013-06-08 11:42:00,87.4,49.7,29.94,SSE,156,5.8,5.8,27,0.00,,---,0.00,VWS V14.01,2013-06-08 15:42:00,
2013-06-08 11:47:00,87.4,49.7,29.94,NW,307,4.9,4.9,27,0.00,,---,0.00,VWS V14.01,2013-06-08 15:47:00,
2013-06-08 11:52:00,87.1,48.3,29.94,SSE,151,0.0,2.2,26,0.00,,---,0.00,VWS V14.01,2013-06-08 15:52:00,
2013-06-08 11:57:00,87.1,48.3,29.94,South,190,0.0,0.0,26,0.00,,---,0.00,VWS V14.01,2013-06-08 15:57:00,
2013-06-08 12:02:00,87.6,49.8,29.94,South,176,0.0,0.0,27,0.00,,---,0.00,VWS V14.01,2013-06-08 16:02:00,
2013-06-08 12:07:00,88.0,45.7,29.94,South,184,0.0,3.6,23,0.00,,---,0.00,VWS V14.01,2013-06-08 16:07:00,
2013-06-08 12:12:00,88.2,48.2,29.94,SSW,192,0.0,0.0,25,0.00,,---,0.00,VWS V14.01,2013-06-08 16:12:00,
2013-06-08 12:17:00,88.7,46.3,29.94,South,171,3.6,3.6,23,0.00,,---,0.00,VWS V14.01,2013-06-08 16:17:00,
2013-06-08 12:22:00,89.2,45.5,29.94,SSW,205,2.2,3.6,22,0.00,,---,0.00,VWS V14.01,2013-06-08 16:22:00,
2013-06-08 12:27:00,89.4,45.7,29.94,SSE,165,2.2,2.7,22,0.00,,---,0.00,VWS V14.01,2013-06-08 16:27:00,
2013-06-08 12:32:00,89.8,47.2,29.94,SSE,164,0.0,3.6,23,0.00,,---,0.00,VWS V14.01,2013-06-08 16:32:00,
2013-06-08 12:37:00,90.3,50.0,29.94,ENE,58,2.2,5.8,25,0.00,,---,0.00,VWS V14.01,2013-06-08 16:37:00,
2013-06-08 12:42:00,89.6,45.8,29.91,SSW,198,3.6,3.6,22,0.00,,---,0.00,VWS V14.01,2013-06-08 16:42:00,
2013-06-08 12:47:00,88.7,46.3,29.91,WNW,298,0.0,3.6,23,0.00,,---,0.00,VWS V14.01,2013-06-08 16:47:00,
2013-06-08 12:52:00,88.5,46.2,29.91,SSW,208,2.2,2.7,23,0.00,,---,0.00,VWS V14.01,2013-06-08 16:52:00,
2013-06-08 12:57:00,88.7,49.7,29.91,SSW,209,0.0,0.0,26,0.00,,---,0.00,VWS V14.01,2013-06-08 16:57:00,
2013-06-08 13:02:00,89.1,47.8,29.91,SSE,168,4.0,4.0,24,0.00,,---,0.00,VWS V14.01,2013-06-08 17:02:00,
2013-06-08 13:07:00,88.5,47.3,29.91,South,186,3.1,6.7,24,0.00,,---,0.00,VWS V14.01,2013-06-08 17:07:00,
2013-06-08 13:12:00,89.2,46.8,29.91,West,275,3.6,3.6,23,0.00,,---,0.00,VWS V14.01,2013-06-08 17:12:00,
2013-06-08 13:17:00,89.4,43.0,29.91,ESE,104,0.0,2.2,20,0.00,,---,0.00,VWS V14.01,2013-06-08 17:17:00,
2013-06-08 13:22:00,89.6,43.2,29.91,NNW,337,0.0,3.6,20,0.00,,---,0.00,VWS V14.01,2013-06-08 17:22:00,
2013-06-08 13:27:00,89.4,44.4,29.91,SW,230,2.7,4.5,21,0.00,,---,0.00,VWS V14.01,2013-06-08 17:27:00,
2013-06-08 13:32:00,89.2,44.2,29.91,SSE,167,4.0,4.0,21,0.00,,---,0.00,VWS V14.01,2013-06-08 17:32:00,
2013-06-08 13:37:00,89.1,45.4,29.91,SSE,153,3.1,3.1,22,0.00,,---,0.00,VWS V14.01,2013-06-08 17:37:00,
2013-06-08 13:42:00,88.7,48.6,29.91,SSE,161,0.0,0.0,25,0.00,,---,0.00,VWS V14.01,2013-06-08 17:42:00,
2013-06-08 13:47:00,88.5,46.2,29.91,WNW,295,2.7,3.1,23,0.00,,---,0.00,VWS V14.01,2013-06-08 17:47:00,
2013-06-08 13:52:00,88.5,46.2,29.91,South,177,4.0,6.3,23,0.00,,---,0.00,VWS V14.01,2013-06-08 17:52:00,
2013-06-08 13:57:00,88.5,44.9,29.91,South,174,5.8,5.8,22,0.00,,---,0.00,VWS V14.01,2013-06-08 17:57:00,
2013-06-08 14:02:00,88.9,47.6,29.91,South,172,2.2,2.2,24,0.00,,---,0.00,VWS V14.01,2013-06-08 18:02:00,
2013-06-08 14:07:00,89.6,44.5,29.91,South,176,0.0,3.6,21,0.00,,---,0.00,VWS V14.01,2013-06-08 18:07:00,
2013-06-08 14:12:00,89.4,44.4,29.91,South,175,3.1,4.9,21,0.00,,---,0.00,VWS V14.01,2013-06-08 18:12:00,
2013-06-08 14:17:00,89.4,43.0,29.91,South,183,2.7,3.6,20,0.00,,---,0.00,VWS V14.01,2013-06-08 18:17:00,
2013-06-08 14:22:00,89.8,43.3,29.91,South,179,3.1,3.6,20,0.00,,---,0.00,VWS V14.01,2013-06-08 18:22:00,
2013-06-08 14:27:00,90.7,46.7,29.91,SE,145,2.7,5.4,22,0.00,,---,0.00,VWS V14.01,2013-06-08 18:27:00,
2013-06-08 14:32:00,90.7,44.1,29.91,South,178,2.7,4.0,20,0.00,,---,0.00,VWS V14.01,2013-06-08 18:32:00,
2013-06-08 14:37:00,91.4,44.7,29.91,South,176,3.1,3.1,20,0.00,,---,0.00,VWS V14.01,2013-06-08 18:37:00,
2013-06-08 14:42:00,91.4,43.2,29.88,South,170,2.2,3.1,19,0.00,,---,0.00,VWS V14.01,2013-06-08 18:42:00,
2013-06-08 14:47:00,91.2,43.1,29.88,South,173,4.0,5.4,19,0.00,,---,0.00,VWS V14.01,2013-06-08 18:47:00,
2013-06-08 14:53:00,91.0,44.4,29.88,ENE,74,0.0,3.1,20,0.00,,---,0.00,VWS V14.01,2013-06-08 18:53:00,
2013-06-08 14:58:00,91.2,45.9,29.88,SSE,167,2.7,4.0,21,0.00,,---,0.00,VWS V14.01,2013-06-08 18:58:00,
2013-06-08 15:03:00,91.4,43.2,29.88,South,171,0.0,3.1,19,0.00,,---,0.00,VWS V14.01,2013-06-08 19:03:00,
2013-06-08 15:07:00,91.2,44.5,29.88,South,186,2.7,3.6,20,0.00,,---,0.00,VWS V14.01,2013-06-08 19:07:00,
2013-06-08 15:13:00,91.2,43.1,29.88,South,178,0.0,4.0,19,0.00,,---,0.00,VWS V14.01,2013-06-08 19:13:00,
2013-06-08 15:18:00,91.8,45.0,29.88,WNW,289,2.2,2.2,20,0.00,,---,0.00,VWS V14.01,2013-06-08 19:18:00,
2013-06-08 15:23:00,91.9,43.7,29.88,WSW,257,4.0,4.0,19,0.00,,---,0.00,VWS V14.01,2013-06-08 19:23:00,
2013-06-08 15:28:00,92.1,45.3,29.88,SSE,167,0.0,2.2,20,0.00,,---,0.00,VWS V14.01,2013-06-08 19:28:00,
2013-06-08 15:33:00,91.9,43.7,29.88,NNW,338,2.2,2.7,19,0.00,,---,0.00,VWS V14.01,2013-06-08 19:33:00,
2013-06-08 15:38:00,91.0,44.4,29.88,ENE,72,0.0,0.0,20,0.00,,---,0.00,VWS V14.01,2013-06-08 19:38:00,
2013-06-08 15:43:00,90.1,43.6,29.88,East,83,0.0,0.0,20,0.00,,---,0.00,VWS V14.01,2013-06-08 19:43:00,
2013-06-08 15:48:00,90.1,45.0,29.88,ENE,74,0.0,0.0,21,0.00,,---,0.00,VWS V14.01,2013-06-08 19:48:00,
2013-06-08 15:53:00,90.7,46.7,29.88,ENE,74,0.0,0.0,22,0.00,,---,0.00,VWS V14.01,2013-06-08 19:53:00,
2013-06-08 15:58:00,90.5,45.3,29.88,ENE,72,0.0,0.0,21,0.00,,---,0.00,VWS V14.01,2013-06-08 19:58:00,
2013-06-08 16:03:00,90.1,46.3,29.88,North,2,0.0,3.6,22,0.00,,---,0.00,VWS V14.01,2013-06-08 20:03:00,
2013-06-08 16:08:00,89.2,44.2,29.88,ESE,103,2.7,3.1,21,0.00,,---,0.00,VWS V14.01,2013-06-08 20:08:00,
2013-06-08 16:13:00,89.1,45.4,29.88,ENE,60,2.7,3.6,22,0.00,,---,0.00,VWS V14.01,2013-06-08 20:13:00,
2013-06-08 16:18:00,88.7,49.7,29.88,ENE,75,6.7,6.7,26,0.00,,---,0.00,VWS V14.01,2013-06-08 20:18:00,
2013-06-08 16:23:00,88.9,52.9,29.88,ENE,74,0.0,3.6,29,0.00,,---,0.00,VWS V14.01,2013-06-08 20:23:00,
2013-06-08 16:28:00,88.7,53.7,29.88,East,86,0.0,2.2,30,0.00,,---,0.00,VWS V14.01,2013-06-08 20:28:00,
2013-06-08 16:33:00,88.2,54.2,29.88,East,91,0.0,4.0,31,0.00,,---,0.00,VWS V14.01,2013-06-08 20:33:00,
2013-06-08 16:38:00,88.0,54.0,29.88,SE,131,2.2,3.1,31,0.00,,---,0.00,VWS V14.01,2013-06-08 20:38:00,
2013-06-08 16:43:00,87.6,55.5,29.88,South,175,0.0,3.1,34,0.00,,---,0.00,VWS V14.01,2013-06-08 20:43:00,
2013-06-08 16:48:00,87.3,56.0,29.88,South,171,2.7,3.1,35,0.00,,---,0.00,VWS V14.01,2013-06-08 20:48:00,
2013-06-08 16:53:00,87.1,56.7,29.88,South,175,0.0,2.2,36,0.00,,---,0.00,VWS V14.01,2013-06-08 20:53:00,
2013-06-08 16:58:00,87.1,56.7,29.91,SSE,164,2.7,4.0,36,0.00,,---,0.00,VWS V14.01,2013-06-08 20:58:00,
2013-06-08 17:03:00,86.9,56.5,29.91,ENE,67,0.0,3.6,36,0.00,,---,0.00,VWS V14.01,2013-06-08 21:03:00,
2013-06-08 17:08:00,86.9,57.3,29.91,SSE,157,0.0,3.6,37,0.00,,---,0.00,VWS V14.01,2013-06-08 21:08:00,
2013-06-08 17:13:00,86.7,57.2,29.91,South,186,3.6,3.6,37,0.00,,---,0.00,VWS V14.01,2013-06-08 21:13:00,
2013-06-08 17:18:00,86.5,57.0,29.91,SSW,202,3.1,3.1,37,0.00,,---,0.00,VWS V14.01,2013-06-08 21:18:00,
2013-06-08 17:23:00,86.5,57.0,29.91,SSW,210,3.1,3.1,37,0.00,,---,0.00,VWS V14.01,2013-06-08 21:23:00,
2013-06-08 17:28:00,86.4,58.4,29.91,East,91,4.0,4.5,39,0.00,,---,0.00,VWS V14.01,2013-06-08 21:28:00,
2013-06-08 17:33:00,86.2,57.5,29.91,ESE,115,3.6,7.6,38,0.00,,---,0.00,VWS V14.01,2013-06-08 21:33:00,
2013-06-08 17:38:00,86.2,58.2,29.91,SSE,163,2.2,2.7,39,0.00,,---,0.00,VWS V14.01,2013-06-08 21:38:00,
2013-06-08 17:43:00,86.0,58.8,29.91,SE,124,2.2,2.2,40,0.00,,---,0.00,VWS V14.01,2013-06-08 21:43:00,
2013-06-08 17:48:00,85.8,58.7,29.91,South,170,5.4,5.4,40,0.00,,---,0.00,VWS V14.01,2013-06-08 21:48:00,
2013-06-08 17:53:00,85.8,58.7,29.91,ESE,104,3.1,3.1,40,0.00,,---,0.00,VWS V14.01,2013-06-08 21:53:00,
2013-06-08 17:58:00,85.6,57.8,29.91,SSW,212,0.0,0.0,39,0.00,,---,0.00,VWS V14.01,2013-06-08 21:58:00,
2013-06-08 18:03:00,85.3,58.2,29.91,SE,144,5.8,5.8,40,0.00,,---,0.00,VWS V14.01,2013-06-08 22:03:00,
2013-06-08 18:08:00,85.1,57.3,29.91,NE,55,2.7,2.7,39,0.00,,---,0.00,VWS V14.01,2013-06-08 22:08:00,
2013-06-08 18:13:00,84.9,57.1,29.91,SSW,206,0.0,3.6,39,0.00,,---,0.00,VWS V14.01,2013-06-08 22:13:00,
2013-06-08 18:18:00,84.7,56.2,29.91,South,188,2.7,3.6,38,0.00,,---,0.00,VWS V14.01,2013-06-08 22:18:00,
2013-06-08 18:23:00,84.6,56.8,29.91,SSE,161,2.2,2.2,39,0.00,,---,0.00,VWS V14.01,2013-06-08 22:23:00,
2013-06-08 18:28:00,84.2,56.5,29.91,SSE,166,0.0,3.1,39,0.00,,---,0.00,VWS V14.01,2013-06-08 22:28:00,
2013-06-08 18:33:00,84.0,57.1,29.91,SE,132,2.7,2.7,40,0.00,,---,0.00,VWS V14.01,2013-06-08 22:33:00,
2013-06-08 18:38:00,83.8,56.2,29.91,South,181,2.7,4.0,39,0.00,,---,0.00,VWS V14.01,2013-06-08 22:38:00,
2013-06-08 18:43:00,83.7,57.5,29.91,South,183,2.2,2.2,41,0.00,,---,0.00,VWS V14.01,2013-06-08 22:43:00,
2013-06-08 18:48:00,83.5,57.3,29.91,South,190,2.7,2.7,41,0.00,,---,0.00,VWS V14.01,2013-06-08 22:48:00,
2013-06-08 18:53:00,83.5,57.3,29.91,South,173,0.0,0.0,41,0.00,,---,0.00,VWS V14.01,2013-06-08 22:53:00,
2013-06-08 18:58:00,83.3,57.1,29.91,SSE,154,3.1,3.1,41,0.00,,---,0.00,VWS V14.01,2013-06-08 22:58:00,
2013-06-08 19:03:00,83.1,57.0,29.91,SSE,161,4.0,4.0,41,0.00,,---,0.00,VWS V14.01,2013-06-08 23:03:00,
2013-06-08 19:08:00,83.1,57.0,29.91,South,182,2.2,2.7,41,0.00,,---,0.00,VWS V14.01,2013-06-08 23:08:00,
2013-06-08 19:13:00,82.9,56.8,29.91,SSE,164,5.4,8.1,41,0.00,,---,0.00,VWS V14.01,2013-06-08 23:13:00,
2013-06-08 19:18:00,82.9,56.8,29.91,SSE,164,2.2,2.7,41,0.00,,---,0.00,VWS V14.01,2013-06-08 23:18:00,
2013-06-08 19:23:00,82.8,56.7,29.91,SSE,165,6.3,8.1,41,0.00,,---,0.00,VWS V14.01,2013-06-08 23:23:00,
2013-06-08 19:28:00,82.6,56.5,29.94,SSW,213,3.1,3.1,41,0.00,,---,0.00,VWS V14.01,2013-06-08 23:28:00,
2013-06-08 19:33:00,82.4,56.3,29.94,South,169,3.6,3.6,41,0.00,,---,0.00,VWS V14.01,2013-06-08 23:33:00,
2013-06-08 19:38:00,82.2,56.2,29.94,SSE,165,4.9,4.9,41,0.00,,---,0.00,VWS V14.01,2013-06-08 23:38:00,
2013-06-08 19:43:00,82.2,56.2,29.94,South,176,6.3,6.3,41,0.00,,---,0.00,VWS V14.01,2013-06-08 23:43:00,
2013-06-08 19:48:00,82.0,56.7,29.94,South,190,3.1,4.9,42,0.00,,---,0.00,VWS V14.01,2013-06-08 23:48:00,
2013-06-08 19:53:00,81.9,56.5,29.94,South,172,4.9,8.7,42,0.00,,---,0.00,VWS V14.01,2013-06-08 23:53:00,
2013-06-08 19:58:00,81.9,55.8,29.94,South,189,3.6,3.6,41,0.00,,---,0.00,VWS V14.01,2013-06-08 23:58:00,
2013-06-08 20:03:00,81.9,55.8,29.94,SSE,165,3.6,3.6,41,0.00,,---,0.00,VWS V14.01,2013-06-09 00:03:00,
2013-06-08 20:08:00,81.9,55.8,29.94,South,172,5.8,5.8,41,0.00,,---,0.00,VWS V14.01,2013-06-09 00:08:00,
2013-06-08 20:13:00,81.9,55.8,29.94,SSE,162,5.8,7.6,41,0.00,,---,0.00,VWS V14.01,2013-06-09 00:13:00,
2013-06-08 20:18:00,81.7,55.7,29.94,South,178,6.3,6.3,41,0.00,,---,0.00,VWS V14.01,2013-06-09 00:18:00,
2013-06-08 20:23:00,81.7,55.7,29.94,SSE,162,7.2,7.2,41,0.00,,---,0.00,VWS V14.01,2013-06-09 00:23:00,
2013-06-08 20:28:00,81.7,55.7,29.94,SSW,197,4.0,4.0,41,0.00,,---,0.00,VWS V14.01,2013-06-09 00:28:00,
2013-06-08 20:33:00,81.7,56.4,29.94,SSE,167,4.0,4.0,42,0.00,,---,0.00,VWS V14.01,2013-06-09 00:33:00,
2013-06-08 20:38:00,81.7,56.4,29.94,SSW,210,2.7,3.6,42,0.00,,---,0.00,VWS V14.01,2013-06-09 00:38:00,
2013-06-08 20:43:00,81.5,56.9,29.94,South,178,4.0,4.0,43,0.00,,---,0.00,VWS V14.01,2013-06-09 00:43:00,
2013-06-08 20:48:00,81.5,57.6,29.94,South,189,6.3,6.3,44,0.00,,---,0.00,VWS V14.01,2013-06-09 00:48:00,
2013-06-08 20:53:00,81.3,57.4,29.94,SSE,168,7.6,7.6,44,0.00,,---,0.00,VWS V14.01,2013-06-09 00:53:00,
2013-06-08 20:58:00,81.5,58.2,29.94,SSE,168,3.6,4.0,45,0.00,,---,0.00,VWS V14.01,2013-06-09 00:58:00,
2013-06-08 21:03:00,81.3,58.1,29.94,SSW,200,2.2,3.1,45,0.00,,---,0.00,VWS V14.01,2013-06-09 01:03:00,
2013-06-08 21:08:00,81.3,58.7,29.94,South,181,3.6,3.6,46,0.00,,---,0.00,VWS V14.01,2013-06-09 01:08:00,
2013-06-08 21:13:00,81.1,59.8,29.94,SSE,163,3.6,5.8,48,0.00,,---,0.00,VWS V14.01,2013-06-09 01:13:00,
2013-06-08 21:18:00,81.1,59.8,29.94,SSW,195,2.7,2.7,48,0.00,,---,0.00,VWS V14.01,2013-06-09 01:18:00,
2013-06-08 21:23:00,81.1,60.4,29.94,South,190,4.0,4.0,49,0.00,,---,0.00,VWS V14.01,2013-06-09 01:23:00,
2013-06-08 21:28:00,81.1,60.4,29.94,South,181,2.2,3.6,49,0.00,,---,0.00,VWS V14.01,2013-06-09 01:28:00,
2013-06-08 21:33:00,81.0,59.0,29.94,South,177,6.3,8.7,47,0.00,,---,0.00,VWS V14.01,2013-06-09 01:33:00,
2013-06-08 21:38:00,80.8,58.8,29.94,SSW,192,8.1,8.1,47,0.00,,---,0.00,VWS V14.01,2013-06-09 01:38:00,
2013-06-08 21:43:00,80.4,57.9,29.97,SSW,204,3.1,4.0,46,0.00,,---,0.00,VWS V14.01,2013-06-09 01:43:00,
2013-06-08 21:48:00,80.1,57.6,29.97,South,180,2.2,3.6,46,0.00,,---,0.00,VWS V14.01,2013-06-09 01:48:00,
2013-06-08 21:53:00,79.9,56.8,29.97,SSW,195,4.0,4.0,45,0.00,,---,0.00,VWS V14.01,2013-06-09 01:53:00,
2013-06-08 21:58:00,79.5,57.1,29.97,South,189,2.2,2.7,46,0.00,,---,0.00,VWS V14.01,2013-06-09 01:58:00,
2013-06-08 22:03:00,79.3,56.9,29.97,SSE,167,5.8,5.8,46,0.00,,---,0.00,VWS V14.01,2013-06-09 02:03:00,
2013-06-08 22:08:00,79.3,56.9,29.97,SSE,168,3.6,3.6,46,0.00,,---,0.00,VWS V14.01,2013-06-09 02:08:00,
2013-06-08 22:13:00,79.2,56.1,29.97,South,190,2.7,4.0,45,0.00,,---,0.00,VWS V14.01,2013-06-09 02:13:00,
2013-06-08 22:18:00,79.0,55.9,29.97,SSW,207,2.2,3.1,45,0.00,,---,0.00,VWS V14.01,2013-06-09 02:18:00,
2013-06-08 22:23:00,79.0,55.9,29.97,South,182,3.1,3.1,45,0.00,,---,0.00,VWS V14.01,2013-06-09 02:23:00,
2013-06-08 22:28:00,78.8,55.1,29.97,NNE,14,2.2,2.2,44,0.00,,---,0.00,VWS V14.01,2013-06-09 02:28:00,
2013-06-08 22:33:00,78.6,55.0,29.97,South,176,4.0,4.0,44,0.00,,---,0.00,VWS V14.01,2013-06-09 02:33:00,
2013-06-08 22:38:00,78.4,54.8,29.97,South,170,4.0,4.0,44,0.00,,---,0.00,VWS V14.01,2013-06-09 02:38:00,
2013-06-08 22:43:00,78.3,55.3,29.97,South,176,3.6,3.6,45,0.00,,---,0.00,VWS V14.01,2013-06-09 02:43:00,
2013-06-08 22:48:00,78.1,55.8,29.97,SSW,197,2.7,2.7,46,0.00,,---,0.00,VWS V14.01,2013-06-09 02:48:00,
2013-06-08 22:53:00,78.1,56.4,29.97,South,171,0.0,3.6,47,0.00,,---,0.00,VWS V14.01,2013-06-09 02:53:00,
2013-06-08 22:58:00,78.1,56.4,29.97,SSE,159,2.7,2.7,47,0.00,,---,0.00,VWS V14.01,2013-06-09 02:58:00,
2013-06-08 23:03:00,77.9,55.6,29.97,SSE,168,8.1,8.1,46,0.00,,---,0.00,VWS V14.01,2013-06-09 03:03:00,
2013-06-08 23:08:00,77.7,56.0,29.97,South,177,6.7,6.7,47,0.00,,---,0.00,VWS V14.01,2013-06-09 03:08:00,
2013-06-08 23:13:00,77.5,56.5,29.97,South,187,2.7,2.7,48,0.00,,---,0.00,VWS V14.01,2013-06-09 03:13:00,
2013-06-08 23:18:00,77.5,56.5,29.97,SSE,167,0.0,3.6,48,0.00,,---,0.00,VWS V14.01,2013-06-09 03:18:00,
2013-06-08 23:23:00,77.4,56.9,29.97,South,170,3.1,3.1,49,0.00,,---,0.00,VWS V14.01,2013-06-09 03:23:00,
2013-06-08 23:28:00,77.4,56.9,29.97,SSE,168,0.0,0.0,49,0.00,,---,0.00,VWS V14.01,2013-06-09 03:28:00,
2013-06-08 23:33:00,77.4,56.9,29.97,SSE,168,2.7,2.7,49,0.00,,---,0.00,VWS V14.01,2013-06-09 03:33:00,
2013-06-08 23:38:00,77.4,57.5,29.97,South,172,2.7,2.7,50,0.00,,---,0.00,VWS V14.01,2013-06-09 03:38:00,
2013-06-08 23:43:00,77.4,57.5,29.97,SSE,166,2.7,2.7,50,0.00,,---,0.00,VWS V14.01,2013-06-09 03:43:00,
2013-06-08 23:48:00,77.4,57.5,29.97,SSE,168,0.0,3.1,50,0.00,,---,0.00,VWS V14.01,2013-06-09 03:48:00,
2013-06-08 23:53:00,77.4,57.5,29.97,SSE,168,2.2,2.2,50,0.00,,---,0.00,VWS V14.01,2013-06-09 03:53:00,
2013-06-08 23:58:00,77.4,57.5,29.97,SSE,168,0.0,0.0,50,0.00,,---,0.00,VWS V14.01,2013-06-09 03:58:00,